createdAt,value
2023-01-12T00:00:22.883Z,1.90
2023-01-12T00:05:24.652Z,1.90
2023-01-12T00:10:26.357Z,1.90
2023-01-12T00:15:54.170Z,1.90
2023-01-12T00:20:55.966Z,1.90
2023-01-12T00:25:57.675Z,1.70
2023-01-12T00:31:04.013Z,1.70
2023-01-12T00:36:08.414Z,1.70
2023-01-12T00:41:32.792Z,1.60
2023-01-12T00:46:34.510Z,1.60
2023-01-12T00:51:36.247Z,1.60
2023-01-12T00:56:39.114Z,1.60
2023-01-12T01:01:41.010Z,1.60
2023-01-12T01:06:42.775Z,1.60
2023-01-12T01:11:44.852Z,1.60
2023-01-12T01:16:46.835Z,1.60
2023-01-12T01:21:48.910Z,1.60
2023-01-12T01:26:51.576Z,1.60
2023-01-12T01:31:55.626Z,1.60
2023-01-12T01:36:57.457Z,1.70
2023-01-12T01:41:59.545Z,1.70
2023-01-12T01:47:02.999Z,1.70
2023-01-12T01:52:12.799Z,1.70
2023-01-12T01:57:15.744Z,1.70
2023-01-12T02:02:18.597Z,1.70
2023-01-12T02:07:20.488Z,1.70
2023-01-12T02:12:41.134Z,1.70
2023-01-12T02:17:56.277Z,1.60
2023-01-12T02:23:23.184Z,1.70
2023-01-12T02:28:51.399Z,1.70
2023-01-12T02:34:31.055Z,1.70
2023-01-12T02:39:59.625Z,1.70
2023-01-12T02:45:11.619Z,1.70
2023-01-12T02:50:21.304Z,1.70
2023-01-12T02:55:26.320Z,1.70
2023-01-12T03:00:29.611Z,1.60
2023-01-12T03:05:31.560Z,1.60
2023-01-12T03:11:14.611Z,1.60
2023-01-12T03:16:20.949Z,1.50
2023-01-12T03:21:32.571Z,1.50
2023-01-12T03:26:37.772Z,1.50
2023-01-12T03:31:39.585Z,1.40
2023-01-12T03:36:41.269Z,1.40
2023-01-12T03:41:51.933Z,1.30
2023-01-12T03:47:03.406Z,1.30
2023-01-12T03:52:07.443Z,1.30
2023-01-12T03:57:12.188Z,1.30
2023-01-12T04:02:14.415Z,1.20
2023-01-12T04:07:16.178Z,1.20
2023-01-12T04:12:19.261Z,1.10
2023-01-12T04:17:25.090Z,1.20
2023-01-12T04:22:45.038Z,1.10
2023-01-12T04:27:53.467Z,1.10
2023-01-12T04:32:56.738Z,1.10
2023-01-12T04:37:58.542Z,1.00
2023-01-12T04:43:08.765Z,1.10
2023-01-12T04:48:12.872Z,1.00
2023-01-12T04:53:14.686Z,1.00
2023-01-12T04:58:16.581Z,1.10
2023-01-12T05:03:18.819Z,1.00
2023-01-12T05:08:39.541Z,1.10
2023-01-12T05:13:41.353Z,1.00
2023-01-12T05:18:45.037Z,1.10
2023-01-12T05:23:46.750Z,1.10
2023-01-12T05:28:50.027Z,1.10
2023-01-12T05:33:51.813Z,1.20
2023-01-12T05:38:53.552Z,1.20
2023-01-12T05:43:55.303Z,1.20
2023-01-12T05:48:58.380Z,1.20
2023-01-12T05:54:00.069Z,1.20
2023-01-12T05:59:04.395Z,1.20
2023-01-12T06:04:06.287Z,1.30
2023-01-12T06:09:08.125Z,1.30
2023-01-12T06:14:10.736Z,1.30
2023-01-12T06:19:13.225Z,1.30
2023-01-12T06:24:15.168Z,1.40
2023-01-12T06:29:16.918Z,1.40
2023-01-12T06:34:18.781Z,1.40
2023-01-12T06:39:20.619Z,1.40
2023-01-12T06:44:22.383Z,1.40
2023-01-12T06:49:24.154Z,1.50
2023-01-12T06:54:25.873Z,1.60
2023-01-12T06:59:27.612Z,1.60
2023-01-12T07:04:29.382Z,1.60
2023-01-12T07:09:31.105Z,1.60
2023-01-12T07:14:33.165Z,1.70
2023-01-12T07:19:34.876Z,1.70
2023-01-12T07:24:36.570Z,1.70
2023-01-12T07:29:38.447Z,1.80
2023-01-12T07:34:40.306Z,1.80
2023-01-12T07:39:42.025Z,1.80
2023-01-12T07:44:43.731Z,1.90
2023-01-12T07:49:45.810Z,1.90
2023-01-12T07:54:47.534Z,1.90
2023-01-12T07:59:49.258Z,2.00
2023-01-12T08:04:50.988Z,2.00
2023-01-12T08:09:52.799Z,2.00
2023-01-12T08:14:54.554Z,2.10
2023-01-12T08:20:01.386Z,2.10
2023-01-12T08:25:38.515Z,2.20
2023-01-12T08:30:40.654Z,2.20
2023-01-12T08:35:43.268Z,2.10
2023-01-12T08:41:03.985Z,2.20
2023-01-12T08:46:08.120Z,2.20
2023-01-12T08:51:10.092Z,2.20
2023-01-12T08:56:11.805Z,2.20
2023-01-12T09:01:16.742Z,2.20
2023-01-12T09:06:26.220Z,2.30
2023-01-12T09:11:29.759Z,2.30
2023-01-12T09:16:32.928Z,2.40
2023-01-12T09:21:38.439Z,2.40
2023-01-12T09:26:45.253Z,2.50
2023-01-12T09:31:47.109Z,2.40
2023-01-12T09:36:52.244Z,2.50
2023-01-12T09:42:12.596Z,2.50
2023-01-12T09:47:30.123Z,2.60
2023-01-12T09:52:36.228Z,2.60
2023-01-12T09:58:14.571Z,2.60
2023-01-12T10:03:25.571Z,2.60
2023-01-12T10:08:39.059Z,2.60
2023-01-12T10:13:54.469Z,2.70
2023-01-12T10:19:00.608Z,2.70
2023-01-12T10:24:02.604Z,2.70
2023-01-12T10:29:04.513Z,2.80
2023-01-12T10:34:11.803Z,2.80
2023-01-12T10:39:40.432Z,2.70
2023-01-12T10:44:42.077Z,2.80
2023-01-12T10:49:43.794Z,2.90
2023-01-12T10:54:49.685Z,3.00
2023-01-12T10:59:58.341Z,3.10
2023-01-12T11:05:00.059Z,3.10
2023-01-12T11:10:30.410Z,3.10
2023-01-12T11:15:39.209Z,3.20
2023-01-12T11:20:46.887Z,3.20
2023-01-12T11:25:51.773Z,3.20
2023-01-12T11:31:12.429Z,3.30
2023-01-12T11:36:38.725Z,3.30
2023-01-12T11:42:05.148Z,3.30
2023-01-12T11:47:13.036Z,3.40
2023-01-12T11:52:16.557Z,3.40
2023-01-12T11:57:18.460Z,3.40
2023-01-12T12:02:44.449Z,3.40
2023-01-12T12:08:07.841Z,3.40
2023-01-12T12:13:24.873Z,3.40
2023-01-12T12:18:52.949Z,3.40
2023-01-12T12:23:57.698Z,3.50
2023-01-12T12:29:27.834Z,3.60
2023-01-12T12:34:41.436Z,3.60
2023-01-12T12:39:53.896Z,3.70
2023-01-12T12:45:18.024Z,3.80
2023-01-12T12:50:45.821Z,3.70
2023-01-12T12:55:50.359Z,3.70
2023-01-12T13:00:54.779Z,3.70
2023-01-12T13:06:25.953Z,3.70
2023-01-12T13:11:58.877Z,3.60
2023-01-12T13:17:27.119Z,3.60
2023-01-12T13:22:45.230Z,3.60
2023-01-12T13:28:10.333Z,3.50
2023-01-12T13:33:27.258Z,3.50
2023-01-12T13:38:39.285Z,3.40
2023-01-12T13:43:55.396Z,3.50
2023-01-12T13:48:57.380Z,3.40
2023-01-12T13:54:10.079Z,3.40
2023-01-12T13:59:18.191Z,3.50
2023-01-12T14:04:49.677Z,3.50
2023-01-12T14:10:04.545Z,3.50
2023-01-12T14:15:43.088Z,3.50
2023-01-12T14:20:49.148Z,3.60
2023-01-12T14:26:07.705Z,3.60
2023-01-12T14:31:35.353Z,3.70
2023-01-12T14:36:46.779Z,3.60
2023-01-12T14:42:13.075Z,3.60
2023-01-12T14:47:29.706Z,3.60
2023-01-12T14:52:33.403Z,3.50
2023-01-12T14:57:36.390Z,3.60
2023-01-12T15:02:42.074Z,3.70
2023-01-12T15:07:58.325Z,3.80
2023-01-12T15:13:33.034Z,3.90
2023-01-12T15:18:54.029Z,3.80
2023-01-12T15:24:15.515Z,3.70
2023-01-12T15:29:17.225Z,3.80
2023-01-12T15:34:19.136Z,3.70
2023-01-12T15:39:20.863Z,3.80
2023-01-12T15:44:22.745Z,3.80
2023-01-12T15:49:24.510Z,3.80
2023-01-12T15:54:26.556Z,3.80
2023-01-12T15:59:28.421Z,3.90
2023-01-12T16:04:45.571Z,3.90
2023-01-12T16:37:15.574Z,3.90
2023-01-12T16:42:17.433Z,3.90
2023-01-12T16:47:20.557Z,3.90
2023-01-12T16:52:22.650Z,3.90
2023-01-12T16:57:24.365Z,3.90
2023-01-12T17:02:26.264Z,3.90
2023-01-12T17:07:28.959Z,3.90
2023-01-12T17:12:31.597Z,3.90
2023-01-12T17:17:34.408Z,3.90
2023-01-12T17:22:36.199Z,3.90
2023-01-12T17:27:37.987Z,3.90
2023-01-12T17:32:39.805Z,4.00
2023-01-12T17:37:41.681Z,4.10
2023-01-12T17:43:02.260Z,4.00
2023-01-12T17:48:04.491Z,4.10
2023-01-12T17:53:09.476Z,4.00
2023-01-12T17:58:11.406Z,4.00
2023-01-12T18:03:13.240Z,4.10
2023-01-12T18:08:15.077Z,4.10
2023-01-12T18:13:16.789Z,4.20
2023-01-12T18:18:18.502Z,4.20
2023-01-12T18:23:21.011Z,4.20
2023-01-12T18:28:22.772Z,4.30
2023-01-12T18:33:24.701Z,4.30
2023-01-12T18:38:27.361Z,4.30
2023-01-12T18:43:29.315Z,4.30
2023-01-12T18:48:31.057Z,4.20
2023-01-12T18:53:33.844Z,4.20
2023-01-12T18:58:37.071Z,4.20
2023-01-12T19:03:39.278Z,4.20
2023-01-12T19:08:59.922Z,4.20
2023-01-12T19:14:20.506Z,4.20
2023-01-12T19:19:26.994Z,4.20
2023-01-12T19:24:47.453Z,4.20
2023-01-12T19:29:50.415Z,4.20
2023-01-12T19:34:56.536Z,4.20
2023-01-12T19:40:11.771Z,4.30
2023-01-12T19:45:13.546Z,4.20
2023-01-12T19:50:15.994Z,4.30
2023-01-12T19:55:17.817Z,4.30
2023-01-12T20:00:19.812Z,4.40
2023-01-12T20:05:24.354Z,4.40
2023-01-12T20:10:26.227Z,4.40
2023-01-12T20:15:28.193Z,4.50
2023-01-12T20:20:30.574Z,4.50
2023-01-12T20:25:32.794Z,4.50
2023-01-12T20:30:38.900Z,4.50
2023-01-12T20:35:46.334Z,4.50
2023-01-12T20:40:48.721Z,4.60
2023-01-12T20:45:52.425Z,4.60
2023-01-12T20:50:54.531Z,4.60
2023-01-12T20:55:56.233Z,4.70
2023-01-12T21:00:58.212Z,4.70
2023-01-12T21:06:01.067Z,4.70
2023-01-12T21:11:02.826Z,4.70
2023-01-12T21:16:07.026Z,4.80
2023-01-12T21:21:09.224Z,4.80
2023-01-12T21:26:11.325Z,4.80
2023-01-12T21:31:13.521Z,4.80
2023-01-12T21:36:17.806Z,4.90
2023-01-12T21:41:21.826Z,4.90
2023-01-12T21:46:23.575Z,5.00
2023-01-12T21:51:25.297Z,5.00
2023-01-12T21:56:27.045Z,5.10
2023-01-12T22:01:28.848Z,5.10
2023-01-12T22:06:31.269Z,5.10
2023-01-12T22:11:32.997Z,5.10
2023-01-12T22:16:34.936Z,5.10
2023-01-12T22:21:36.673Z,5.10
2023-01-12T22:26:38.414Z,5.10
2023-01-12T22:31:40.193Z,5.20
2023-01-12T22:36:44.928Z,5.10
2023-01-12T22:41:47.633Z,5.20
2023-01-12T22:46:49.414Z,5.10
2023-01-12T22:51:51.131Z,5.20
2023-01-12T22:56:52.834Z,5.20
2023-01-12T23:01:54.978Z,5.10
2023-01-12T23:06:56.740Z,5.20
2023-01-12T23:11:58.497Z,5.30
2023-01-12T23:17:00.228Z,5.20
2023-01-12T23:27:27.619Z,5.20
2023-01-12T23:43:21.273Z,5.30
2023-01-12T23:53:52.622Z,5.20
